Time;durP1;ratioP1;P1;durP2;ratioP2;P2;SDS_P1;SDS_P2;PMS_P1;PMS_P2;Temp;Humidity;BMP_temperature;BMP_pressure;BME280_temperature;BME280_humidity;BME280_pressure;Samples;Min_cycle;Max_cycle;Signal;HPM_P1;HPM_P2
2023/01/01 00:00:44;;;;;;;113.80;73.63;;;12.40;99.90;;;;;;5010582;28;20045;-70
2023/01/01 00:03:11;;;;;;;109.78;73.30;;;12.40;99.90;;;;;;5008950;28;20060;-70
2023/01/01 00:05:39;;;;;;;108.22;71.53;;;12.30;99.90;;;;;;4993561;28;20618;-69
2023/01/01 00:08:06;;;;;;;101.55;70.78;;;12.30;99.90;;;;;;4994917;28;20053;-70
2023/01/01 00:10:34;;;;;;;103.88;65.13;;;12.30;99.90;;;;;;5009015;28;20058;-71
2023/01/01 00:13:01;;;;;;;93.57;63.65;;;12.20;99.90;;;;;;5010785;28;20364;-69
2023/01/01 00:15:28;;;;;;;89.30;59.35;;;12.20;99.90;;;;;;5011895;28;20049;-69
2023/01/01 00:17:56;;;;;;;93.28;58.75;;;12.20;99.90;;;;;;5010862;28;20041;-69
2023/01/01 00:20:24;;;;;;;85.78;54.05;;;12.20;99.90;;;;;;5010857;28;20416;-69
2023/01/01 00:22:59;;;;;;;73.22;50.42;;;12.20;99.90;;;;;;5009580;28;20370;-70
2023/01/01 00:25:26;;;;;;;79.88;50.25;;;12.30;99.90;;;;;;5009339;28;20129;-70
2023/01/01 00:27:54;;;;;;;79.28;48.67;;;12.30;99.90;;;;;;4994267;28;20104;-70
2023/01/01 00:30:23;;;;;;;77.07;51.58;;;12.30;99.90;;;;;;4992763;28;20053;-69
2023/01/01 00:32:51;;;;;;;83.35;52.90;;;12.30;99.90;;;;;;5010460;28;20124;-70
2023/01/01 00:35:26;;;;;;;98.63;60.90;;;12.30;99.90;;;;;;5010833;28;20385;-70
2023/01/01 00:37:54;;;;;;;101.05;65.47;;;12.30;99.90;;;;;;5008720;28;20747;-70
2023/01/01 00:40:22;;;;;;;93.97;60.65;;;12.20;99.90;;;;;;5010111;28;20062;-69
2023/01/01 00:42:49;;;;;;;83.97;54.90;;;12.20;99.90;;;;;;5010398;28;20068;-70
2023/01/01 00:45:17;;;;;;;98.80;56.75;;;12.20;99.90;;;;;;4993720;28;20056;-70
2023/01/01 00:47:50;;;;;;;81.55;55.20;;;12.10;99.90;;;;;;5010536;28;20440;-69
2023/01/01 00:50:19;;;;;;;84.25;52.92;;;12.00;99.90;;;;;;4993801;28;20054;-70
2023/01/01 00:52:48;;;;;;;75.95;48.78;;;12.10;99.90;;;;;;5009665;28;20495;-69
2023/01/01 00:55:16;;;;;;;71.68;47.28;;;12.10;99.90;;;;;;5010091;28;20054;-70
2023/01/01 00:57:43;;;;;;;66.35;44.13;;;12.10;99.90;;;;;;5023972;28;20069;-69
2023/01/01 01:00:12;;;;;;;60.15;40.17;;;12.00;99.90;;;;;;4992264;28;20372;-70
2023/01/01 01:02:39;;;;;;;54.75;36.72;;;12.00;99.90;;;;;;5008955;28;20038;-71
2023/01/01 01:05:08;;;;;;;55.90;34.45;;;12.10;99.90;;;;;;5009967;28;20034;-69
2023/01/01 01:07:36;;;;;;;46.63;30.58;;;12.00;99.90;;;;;;4990862;28;20062;-69
2023/01/01 01:10:04;;;;;;;47.42;29.92;;;11.90;99.90;;;;;;5036341;28;20056;-70
2023/01/01 01:12:34;;;;;;;148.07;92.88;;;11.90;99.90;;;;;;5010332;28;20054;-69
2023/01/01 01:15:03;;;;;;;49.85;33.08;;;12.10;99.90;;;;;;4993057;28;20108;-69
2023/01/01 01:17:31;;;;;;;42.75;28.65;;;12.10;99.90;;;;;;4990779;28;20528;-70
2023/01/01 01:19:58;;;;;;;38.47;26.25;;;12.10;99.90;;;;;;5007605;28;20057;-69
2023/01/01 01:22:25;;;;;;;38.40;24.92;;;12.00;99.90;;;;;;5009599;28;20064;-70
2023/01/01 01:24:56;;;;;;;31.05;21.08;;;12.10;99.90;;;;;;5026317;28;20042;-69
2023/01/01 01:27:23;;;;;;;31.73;21.73;;;12.10;99.90;;;;;;5026501;28;20460;-69
2023/01/01 01:29:51;;;;;;;33.70;20.63;;;12.10;99.90;;;;;;5013155;28;20457;-69
2023/01/01 01:32:19;;;;;;;30.42;19.83;;;12.10;99.90;;;;;;5006465;28;20092;-70
2023/01/01 01:34:47;;;;;;;27.67;19.52;;;12.10;99.90;;;;;;5010531;28;20041;-70
2023/01/01 01:37:15;;;;;;;29.70;19.63;;;12.10;99.90;;;;;;5034377;28;20141;-69
2023/01/01 01:39:45;;;;;;;30.38;19.63;;;12.10;99.90;;;;;;4973690;28;20050;-70
2023/01/01 01:42:20;;;;;;;27.02;18.15;;;12.10;99.90;;;;;;4999268;28;20046;-70
2023/01/01 01:44:52;;;;;;;28.83;17.73;;;12.00;99.90;;;;;;5004112;28;20042;-69
2023/01/01 01:47:37;;;;;;;27.83;17.42;;;12.20;99.90;;;;;;5009284;28;20096;-68
2023/01/01 01:50:13;;;;;;;24.55;15.93;;;12.20;99.90;;;;;;5002714;28;20408;-68
2023/01/01 01:52:52;;;;;;;27.08;16.60;;;12.20;99.90;;;;;;5007986;28;20053;-68
2023/01/01 01:55:20;;;;;;;25.67;16.30;;;12.20;99.90;;;;;;5006581;28;20350;-69
2023/01/01 01:57:47;;;;;;;26.20;16.05;;;12.20;99.90;;;;;;5001458;28;20596;-69
2023/01/01 02:00:15;;;;;;;25.98;16.02;;;12.20;99.90;;;;;;5009106;28;20133;-69
2023/01/01 02:03:16;;;;;;;23.55;16.83;;;12.30;99.90;;;;;;5010833;28;20401;-69
2023/01/01 02:05:44;;;;;;;23.65;15.38;;;12.30;99.90;;;;;;5008894;28;20046;-70
2023/01/01 02:08:15;;;;;;;23.45;15.77;;;12.20;99.90;;;;;;5025382;28;20048;-70
2023/01/01 02:10:43;;;;;;;22.13;15.23;;;12.30;99.90;;;;;;5009076;28;20042;-70
2023/01/01 02:13:10;;;;;;;23.83;15.05;;;12.30;99.90;;;;;;5005060;28;20505;-68
2023/01/01 02:16:01;;;;;;;24.27;14.98;;;12.40;99.90;;;;;;5004875;28;20416;-69
2023/01/01 02:18:59;;;;;;;23.27;15.07;;;12.30;99.90;;;;;;5009528;28;20049;-68
2023/01/01 02:21:36;;;;;;;19.80;13.52;;;12.10;99.90;;;;;;5008032;28;20050;-69
2023/01/01 02:24:32;;;;;;;20.73;13.35;;;12.00;99.90;;;;;;4999414;28;20092;-69
2023/01/01 02:27:25;;;;;;;19.58;12.55;;;12.10;99.90;;;;;;5008853;28;20065;-69
2023/01/01 02:30:04;;;;;;;20.10;12.07;;;12.10;99.90;;;;;;5014267;28;20049;-69
2023/01/01 02:32:47;;;;;;;21.08;10.85;;;12.10;99.90;;;;;;5001640;28;20041;-70
2023/01/01 02:35:37;;;;;;;16.92;11.95;;;12.10;99.90;;;;;;5002699;28;20104;-69
2023/01/01 02:38:40;;;;;;;18.48;11.68;;;12.20;99.90;;;;;;5021088;28;20068;-68
2023/01/01 02:41:11;;;;;;;20.27;12.02;;;12.20;99.90;;;;;;5009874;28;20092;-70
2023/01/01 02:43:39;;;;;;;19.52;11.90;;;12.20;99.90;;;;;;5010358;28;20500;-68
2023/01/01 02:46:11;;;;;;;19.98;12.38;;;12.20;99.90;;;;;;5038521;28;20047;-69
2023/01/01 02:48:48;;;;;;;20.77;11.48;;;12.20;99.90;;;;;;5008665;28;20065;-69
2023/01/01 02:51:16;;;;;;;19.65;11.07;;;12.20;99.90;;;;;;5010103;28;20054;-70
2023/01/01 02:54:00;;;;;;;19.30;10.45;;;12.30;99.90;;;;;;5010286;28;20121;-69
2023/01/01 02:57:00;;;;;;;18.83;10.73;;;12.30;99.90;;;;;;5017635;28;20061;-70
2023/01/01 03:02:35;;;;;;;19.75;10.50;;;12.40;99.90;;;;;;5009589;28;20460;-69
2023/01/01 03:05:19;;;;;;;21.15;11.23;;;12.40;99.90;;;;;;5008091;28;20546;-69
2023/01/01 03:08:05;;;;;;;16.23;10.63;;;12.30;99.90;;;;;;5010126;28;20393;-69
2023/01/01 03:10:47;;;;;;;17.98;10.63;;;12.40;99.90;;;;;;5010776;28;20038;-68
2023/01/01 03:13:31;;;;;;;16.25;10.20;;;12.40;99.90;;;;;;5012781;28;20054;-69
2023/01/01 03:16:22;;;;;;;15.70;9.38;;;12.40;99.90;;;;;;5012549;28;20042;-69
2023/01/01 03:19:09;;;;;;;16.42;9.98;;;12.40;99.90;;;;;;5005965;28;20500;-69
2023/01/01 03:22:02;;;;;;;16.08;9.48;;;12.30;99.90;;;;;;5011118;28;20065;-70
2023/01/01 03:24:41;;;;;;;16.33;9.88;;;12.30;99.90;;;;;;5013648;28;20642;-69
2023/01/01 03:27:21;;;;;;;15.05;9.63;;;12.20;99.90;;;;;;5037898;28;20508;-69
2023/01/01 03:29:53;;;;;;;15.60;9.60;;;12.20;99.90;;;;;;4997182;28;20043;-70
2023/01/01 03:32:58;;;;;;;;;;;12.10;99.90;;;;;;5013934;28;20077;-69
2023/01/01 03:35:13;;;;;;;16.77;9.88;;;12.00;99.90;;;;;;5005893;28;20044;-68
2023/01/01 03:37:43;;;;;;;17.13;10.48;;;12.00;99.90;;;;;;4990091;28;20054;-69
2023/01/01 03:40:13;;;;;;;17.23;10.45;;;12.00;99.90;;;;;;5024250;28;20050;-69
2023/01/01 03:42:49;;;;;;;17.92;9.52;;;11.90;99.90;;;;;;5007357;28;20069;-68
2023/01/01 03:45:23;;;;;;;18.02;10.18;;;11.90;99.90;;;;;;5011150;28;20056;-69
2023/01/01 03:47:51;;;;;;;16.27;9.05;;;11.80;99.90;;;;;;5027584;28;20450;-69
2023/01/01 03:50:21;;;;;;;14.75;9.40;;;11.70;99.90;;;;;;5011335;28;20179;-69
2023/01/01 03:52:55;;;;;;;14.02;8.90;;;11.70;99.90;;;;;;5013126;28;20056;-69
2023/01/01 03:55:27;;;;;;;16.38;9.45;;;11.70;99.90;;;;;;5011178;28;20343;-70
2023/01/01 03:58:35;;;;;;;13.77;8.52;;;11.70;99.90;;;;;;5012595;28;20061;-68
2023/01/01 04:01:21;;;;;;;15.95;9.00;;;11.70;99.90;;;;;;4996035;28;20068;-69
2023/01/01 04:03:50;;;;;;;15.82;8.77;;;11.80;99.90;;;;;;5031290;28;20052;-69
2023/01/01 04:06:17;;;;;;;13.57;8.55;;;11.70;99.90;;;;;;5023712;28;20428;-69
2023/01/01 04:08:47;;;;;;;14.40;8.50;;;11.70;99.90;;;;;;5029149;28;20053;-69
2023/01/01 04:14:06;;;;;;;14.05;8.70;;;11.60;99.90;;;;;;5007651;28;20059;-69
2023/01/01 04:16:33;;;;;;;13.90;8.43;;;11.50;99.90;;;;;;5031905;28;20103;-68
2023/01/01 04:19:00;;;;;;;15.88;8.35;;;11.50;99.90;;;;;;4997298;28;20176;-71
2023/01/01 04:21:28;;;;;;;13.13;7.20;;;11.60;99.90;;;;;;5012387;28;20061;-69
2023/01/01 04:23:55;;;;;;;13.52;7.90;;;11.70;99.90;;;;;;5031341;28;20211;-69
2023/01/01 04:26:22;;;;;;;13.70;7.80;;;11.80;99.90;;;;;;5004537;28;20544;-70
2023/01/01 04:28:50;;;;;;;11.32;7.03;;;12.10;99.90;;;;;;5005086;28;20093;-69
2023/01/01 04:31:17;;;;;;;11.88;6.60;;;12.10;99.90;;;;;;5028088;28;20542;-70
2023/01/01 04:33:44;;;;;;;12.73;7.25;;;12.10;99.90;;;;;;5029946;28;20042;-69
2023/01/01 04:36:11;;;;;;;13.40;7.35;;;12.00;99.90;;;;;;5013055;28;20409;-69
2023/01/01 04:38:39;;;;;;;14.30;7.70;;;12.10;99.90;;;;;;5008619;28;20038;-69
2023/01/01 04:41:08;;;;;;;13.63;6.90;;;12.10;99.90;;;;;;5011203;28;20058;-69
2023/01/01 04:43:35;;;;;;;11.18;6.57;;;11.90;99.90;;;;;;4994312;28;20490;-69
2023/01/01 04:46:03;;;;;;;13.45;6.57;;;11.80;99.90;;;;;;5000470;28;20146;-70
2023/01/01 04:48:31;;;;;;;12.80;6.88;;;11.80;99.90;;;;;;5008987;28;20128;-69
2023/01/01 04:51:01;;;;;;;11.00;6.90;;;11.80;99.90;;;;;;5004837;28;20160;-68
2023/01/01 04:53:31;;;;;;;10.75;6.57;;;11.80;99.90;;;;;;4997819;28;20050;-68
2023/01/01 04:56:13;;;;;;;11.40;6.85;;;11.80;99.90;;;;;;5009107;28;20045;-69
2023/01/01 04:58:40;;;;;;;;;;;11.70;99.90;;;;;;5011965;28;20465;-69
2023/01/01 05:01:17;;;;;;;11.93;6.40;;;11.70;99.90;;;;;;5027406;28;20629;-68
2023/01/01 05:03:46;;;;;;;12.75;7.47;;;11.70;99.90;;;;;;5009919;28;20046;-69
2023/01/01 05:06:15;;;;;;;12.80;6.82;;;11.70;99.90;;;;;;5018684;28;20399;-68
2023/01/01 05:08:46;;;;;;;11.48;6.40;;;11.60;99.90;;;;;;5021728;28;20046;-70
2023/01/01 05:11:16;;;;;;;9.13;5.95;;;11.50;99.90;;;;;;5010348;28;20366;-70
2023/01/01 05:13:45;;;;;;;11.40;6.72;;;11.60;99.90;;;;;;5008764;28;20068;-69
2023/01/01 05:16:15;;;;;;;10.50;6.40;;;11.50;99.90;;;;;;5024327;28;20131;-69
2023/01/01 05:18:44;;;;;;;11.32;6.38;;;11.50;99.90;;;;;;5022175;28;20039;-69
2023/01/01 05:21:14;;;;;;;13.32;7.40;;;11.50;99.90;;;;;;5002424;28;20034;-69
2023/01/01 05:23:42;;;;;;;10.15;6.78;;;11.50;99.90;;;;;;5002677;28;20058;-70
2023/01/01 05:26:15;;;;;;;11.23;7.22;;;11.50;99.90;;;;;;4993090;28;20041;-70
2023/01/01 05:28:42;;;;;;;11.15;6.90;;;11.50;99.90;;;;;;5010905;28;20178;-69
2023/01/01 05:31:13;;;;;;;11.73;7.13;;;11.50;99.90;;;;;;5009093;28;20048;-69
2023/01/01 05:33:42;;;;;;;11.50;6.82;;;11.60;99.90;;;;;;5008473;28;20099;-70
2023/01/01 05:36:18;;;;;;;11.55;7.30;;;11.60;99.90;;;;;;5009946;28;20089;-69
2023/01/01 05:38:46;;;;;;;11.43;6.50;;;11.50;99.90;;;;;;5001752;28;20388;-70
2023/01/01 05:41:15;;;;;;;13.10;6.70;;;11.50;99.90;;;;;;5008106;28;20046;-69
2023/01/01 05:43:43;;;;;;;12.27;7.18;;;11.60;99.90;;;;;;5009550;28;20527;-69
2023/01/01 05:46:22;;;;;;;12.27;6.43;;;11.50;99.90;;;;;;5005982;28;20100;-71
2023/01/01 05:48:51;;;;;;;11.43;6.32;;;11.50;99.90;;;;;;5004556;28;20472;-72
2023/01/01 05:51:25;;;;;;;11.15;6.32;;;11.60;99.90;;;;;;5004875;28;20058;-69
2023/01/01 05:53:55;;;;;;;13.07;6.75;;;11.60;99.90;;;;;;5008983;28;20156;-69
2023/01/01 05:56:22;;;;;;;10.52;6.47;;;11.50;99.90;;;;;;5010388;28;20479;-70
2023/01/01 05:58:50;;;;;;;13.27;7.68;;;11.40;99.90;;;;;;5006149;28;20065;-69
2023/01/01 06:01:18;;;;;;;12.75;7.18;;;11.40;99.90;;;;;;4995562;28;20050;-68
2023/01/01 06:03:47;;;;;;;13.13;7.20;;;11.30;99.90;;;;;;5020257;28;20049;-70
2023/01/01 06:06:21;;;;;;;12.82;7.38;;;11.30;99.90;;;;;;5004226;28;20144;-68
2023/01/01 06:08:54;;;;;;;11.05;7.10;;;11.20;99.90;;;;;;5004583;28;20521;-71
2023/01/01 06:11:22;;;;;;;13.48;7.93;;;11.20;99.90;;;;;;5009336;28;20419;-69
2023/01/01 06:13:55;;;;;;;12.18;7.43;;;11.20;99.90;;;;;;4987948;28;20048;-70
2023/01/01 06:16:22;;;;;;;12.82;7.78;;;11.20;99.90;;;;;;5010685;28;20042;-69
2023/01/01 06:18:49;;;;;;;12.93;7.95;;;11.20;99.90;;;;;;5021750;28;20038;-70
2023/01/01 06:21:19;;;;;;;15.85;8.20;;;11.20;99.90;;;;;;5005056;28;20620;-70
2023/01/01 06:23:47;;;;;;;12.98;7.43;;;11.20;99.90;;;;;;5002584;28;20511;-69
2023/01/01 06:26:20;;;;;;;13.30;8.27;;;11.20;99.90;;;;;;5006950;28;20568;-69
2023/01/01 06:28:48;;;;;;;12.77;7.97;;;11.20;99.90;;;;;;4992513;28;20053;-70
2023/01/01 06:31:19;;;;;;;13.73;7.90;;;11.30;99.90;;;;;;4997934;28;20127;-69
2023/01/01 06:33:47;;;;;;;15.10;8.02;;;11.30;99.90;;;;;;5008024;28;20080;-69
2023/01/01 06:36:16;;;;;;;13.25;7.75;;;11.30;99.90;;;;;;5008229;28;20061;-70
2023/01/01 06:38:46;;;;;;;17.15;7.85;;;11.30;99.90;;;;;;5025966;28;20082;-70
2023/01/01 06:41:17;;;;;;;11.95;7.68;;;11.30;99.90;;;;;;4997139;28;20406;-69
2023/01/01 06:43:45;;;;;;;14.45;8.40;;;11.30;99.90;;;;;;5022219;28;20080;-68
2023/01/01 06:46:31;;;;;;;15.93;8.95;;;11.30;99.90;;;;;;4998655;28;20133;-69
2023/01/01 06:49:04;;;;;;;13.65;8.85;;;11.20;99.90;;;;;;5025208;28;20556;-69
2023/01/01 06:51:37;;;;;;;14.82;9.18;;;11.20;99.90;;;;;;4996467;28;20510;-71
2023/01/01 06:54:06;;;;;;;18.17;9.35;;;11.10;99.90;;;;;;5008977;28;20527;-71
2023/01/01 06:56:34;;;;;;;16.30;9.10;;;11.20;99.90;;;;;;5000328;28;20042;-72
2023/01/01 06:59:03;;;;;;;16.27;9.07;;;11.20;99.90;;;;;;5009090;28;20038;-73
2023/01/01 07:01:32;;;;;;;15.25;8.77;;;11.20;99.90;;;;;;5008739;28;20068;-71
2023/01/01 07:04:07;;;;;;;12.77;8.50;;;11.10;99.90;;;;;;5009198;28;20088;-71
2023/01/01 07:06:34;;;;;;;17.30;9.93;;;11.10;99.90;;;;;;5008978;28;20128;-73
2023/01/01 07:09:03;;;;;;;16.38;9.70;;;11.00;99.90;;;;;;5008815;28;20045;-72
2023/01/01 07:11:31;;;;;;;17.15;9.55;;;11.10;99.90;;;;;;5008870;28;20037;-71
2023/01/01 07:14:00;;;;;;;16.63;9.52;;;11.10;99.90;;;;;;5007964;28;20038;-71
2023/01/01 07:16:27;;;;;;;16.00;9.18;;;11.10;99.90;;;;;;5008430;28;20037;-72
2023/01/01 07:18:56;;;;;;;14.82;9.27;;;11.10;99.90;;;;;;5023794;28;20050;-71
2023/01/01 07:21:43;;;;;;;15.98;9.20;;;11.10;99.90;;;;;;5005781;28;20121;-71
2023/01/01 07:24:13;;;;;;;13.82;9.30;;;11.20;99.90;;;;;;5005251;28;20112;-73
2023/01/01 07:26:40;;;;;;;17.77;10.18;;;11.30;99.90;;;;;;5003859;28;20046;-71
2023/01/01 07:29:08;;;;;;;14.23;9.25;;;11.20;99.90;;;;;;5008977;28;20436;-73
2023/01/01 07:31:38;;;;;;;18.27;9.68;;;11.20;99.90;;;;;;5004364;28;20117;-71
2023/01/01 07:34:06;;;;;;;16.45;9.43;;;11.20;99.90;;;;;;5005473;28;20038;-72
2023/01/01 07:36:34;;;;;;;14.10;8.80;;;11.30;99.90;;;;;;4999728;28;20065;-72
2023/01/01 07:39:01;;;;;;;17.73;8.98;;;11.30;99.90;;;;;;5005538;28;20082;-72
2023/01/01 07:41:28;;;;;;;17.15;8.82;;;11.40;99.90;;;;;;5015149;28;20052;-71
2023/01/01 07:43:58;;;;;;;17.00;9.18;;;11.50;99.90;;;;;;5003242;28;20527;-72
2023/01/01 07:46:26;;;;;;;14.88;8.50;;;11.50;99.90;;;;;;5002337;28;20068;-74
2023/01/01 07:48:53;;;;;;;15.73;9.15;;;11.50;99.90;;;;;;5007246;28;20456;-71
2023/01/01 07:51:20;;;;;;;15.90;9.10;;;11.50;99.90;;;;;;5008521;28;20094;-72
2023/01/01 07:53:48;;;;;;;20.42;9.25;;;11.50;99.90;;;;;;5009648;28;20476;-72
2023/01/01 07:56:15;;;;;;;18.50;9.75;;;11.50;99.90;;;;;;5025141;28;20508;-75
2023/01/01 07:58:43;;;;;;;13.90;8.88;;;11.50;99.90;;;;;;4995851;28;20062;-72
2023/01/01 08:01:13;;;;;;;16.20;9.27;;;11.50;99.90;;;;;;5011403;28;20442;-74
2023/01/01 08:03:41;;;;;;;18.27;9.65;;;11.50;99.90;;;;;;5006452;28;20077;-72
2023/01/01 08:06:10;;;;;;;14.38;8.50;;;11.60;99.90;;;;;;5011972;28;20508;-76
2023/01/01 08:08:38;;;;;;;18.05;9.63;;;11.70;99.90;;;;;;4995249;28;20524;-75
2023/01/01 08:11:06;;;;;;;15.85;9.57;;;11.70;99.90;;;;;;4995640;28;20045;-75
2023/01/01 08:13:33;;;;;;;14.98;8.90;;;11.70;99.90;;;;;;5043646;28;20073;-73
2023/01/01 08:16:01;;;;;;;16.08;9.07;;;11.80;99.90;;;;;;5011252;28;20040;-72
2023/01/01 08:18:29;;;;;;;14.55;8.38;;;11.80;99.90;;;;;;5013062;28;20049;-76
2023/01/01 08:20:56;;;;;;;13.88;9.07;;;11.90;99.90;;;;;;5009943;28;20056;-72
2023/01/01 08:23:24;;;;;;;12.23;8.23;;;11.90;99.90;;;;;;5011484;28;20421;-72
2023/01/01 08:25:51;;;;;;;14.75;8.68;;;11.90;99.90;;;;;;5011250;28;20358;-72
2023/01/01 08:28:18;;;;;;;15.25;8.57;;;12.00;99.90;;;;;;5008577;28;20050;-72
2023/01/01 08:30:45;;;;;;;15.95;8.00;;;12.00;99.90;;;;;;5009024;28;20435;-76
2023/01/01 08:33:13;;;;;;;16.23;9.57;;;12.10;99.90;;;;;;5007967;28;20771;-73
2023/01/01 08:35:42;;;;;;;15.07;8.43;;;12.20;99.90;;;;;;5020927;28;20456;-73
2023/01/01 08:38:14;;;;;;;14.10;8.00;;;12.20;99.90;;;;;;5009201;28;20145;-79
2023/01/01 08:40:42;;;;;;;14.93;8.05;;;12.30;99.90;;;;;;5011514;28;20049;-73
2023/01/01 08:43:09;;;;;;;13.95;8.45;;;12.40;99.90;;;;;;5012519;28;20459;-73
2023/01/01 08:45:36;;;;;;;13.10;7.80;;;12.40;99.90;;;;;;5007186;28;20035;-73
2023/01/01 08:48:04;;;;;;;13.00;8.23;;;12.40;99.90;;;;;;5009785;28;20046;-72
2023/01/01 08:50:31;;;;;;;12.88;7.90;;;12.40;99.90;;;;;;4994283;28;20819;-72
2023/01/01 08:52:59;;;;;;;12.73;6.97;;;12.40;99.90;;;;;;5010683;28;20049;-73
2023/01/01 08:55:26;;;;;;;13.38;6.90;;;12.60;99.90;;;;;;5007631;28;20065;-73
2023/01/01 08:57:53;;;;;;;13.43;7.95;;;12.60;99.90;;;;;;5003176;28;20535;-72
2023/01/01 09:00:20;;;;;;;11.80;7.45;;;12.60;99.90;;;;;;5011446;28;20457;-73
2023/01/01 09:02:48;;;;;;;12.18;7.35;;;12.60;99.90;;;;;;5011910;28;20049;-72
2023/01/01 09:05:15;;;;;;;13.65;7.10;;;12.70;99.90;;;;;;5010844;28;20042;-72
2023/01/01 09:07:43;;;;;;;13.02;7.97;;;12.70;99.90;;;;;;5026516;28;20041;-72
2023/01/01 09:10:10;;;;;;;13.18;7.55;;;12.70;99.90;;;;;;5004670;28;20042;-72
2023/01/01 09:12:37;;;;;;;14.57;7.78;;;12.70;99.90;;;;;;4994309;28;20136;-72
2023/01/01 09:15:05;;;;;;;13.10;7.13;;;12.70;99.90;;;;;;5011469;28;20128;-75
2023/01/01 09:17:33;;;;;;;12.48;7.40;;;12.70;99.90;;;;;;5009942;28;20562;-73
2023/01/01 09:20:00;;;;;;;11.88;7.13;;;12.70;99.90;;;;;;4992823;28;20049;-72
2023/01/01 09:22:27;;;;;;;12.55;7.28;;;12.80;99.90;;;;;;5011452;28;20054;-72
2023/01/01 09:24:55;;;;;;;11.85;7.18;;;12.80;99.90;;;;;;5010489;28;20041;-72
2023/01/01 09:27:22;;;;;;;14.40;7.18;;;13.00;99.90;;;;;;5039492;28;20065;-72
2023/01/01 09:29:49;;;;;;;15.43;7.15;;;13.00;99.90;;;;;;5010114;28;20338;-72
2023/01/01 09:32:17;;;;;;;11.02;6.68;;;13.10;99.90;;;;;;5009495;28;20994;-72
2023/01/01 09:34:45;;;;;;;11.13;7.43;;;13.20;99.90;;;;;;5010931;28;20101;-72
2023/01/01 09:37:18;;;;;;;10.90;6.70;;;13.20;99.90;;;;;;4992288;28;20072;-72
2023/01/01 09:39:46;;;;;;;11.48;7.10;;;13.30;99.90;;;;;;5005605;28;20061;-73
2023/01/01 09:42:28;;;;;;;11.35;7.05;;;13.40;99.90;;;;;;5010897;28;20464;-72
2023/01/01 09:45:18;;;;;;;9.77;6.28;;;13.40;99.90;;;;;;5022481;28;20385;-72
2023/01/01 09:47:50;;;;;;;10.13;6.38;;;13.60;99.90;;;;;;5006581;28;20042;-73
2023/01/01 09:50:23;;;;;;;11.23;6.68;;;13.70;99.90;;;;;;5009285;28;20556;-73
2023/01/01 09:52:54;;;;;;;11.07;6.65;;;13.80;99.90;;;;;;5009438;28;20041;-73
2023/01/01 09:55:51;;;;;;;9.32;6.13;;;14.00;99.90;;;;;;5009582;28;20469;-73
2023/01/01 09:58:39;;;;;;;11.43;6.22;;;14.20;99.90;;;;;;5003471;28;20060;-73
2023/01/01 10:01:16;;;;;;;11.38;5.88;;;14.40;99.90;;;;;;5001910;28;20469;-73
2023/01/01 10:04:00;;;;;;;11.25;6.28;;;14.50;99.90;;;;;;5007054;28;20184;-73
2023/01/01 10:06:31;;;;;;;10.40;6.22;;;14.50;99.90;;;;;;5010838;28;20140;-73
2023/01/01 10:09:26;;;;;;;10.13;5.72;;;14.60;99.90;;;;;;5010053;28;20042;-73
2023/01/01 10:12:09;;;;;;;11.82;6.82;;;14.70;99.90;;;;;;5040917;28;20122;-73
2023/01/01 10:14:42;;;;;;;10.38;6.10;;;14.80;99.90;;;;;;5009157;28;20107;-73
2023/01/01 10:17:20;;;;;;;8.85;5.40;;;14.80;99.90;;;;;;5010490;28;20060;-72
2023/01/01 10:19:51;;;;;;;9.80;5.72;;;14.80;99.90;;;;;;5005523;28;20049;-72
2023/01/01 10:22:30;;;;;;;9.05;5.13;;;14.90;99.90;;;;;;5010618;28;20373;-73
2023/01/01 10:25:16;;;;;;;11.95;7.03;;;14.90;99.90;;;;;;5008453;28;20092;-71
2023/01/01 10:28:04;;;;;;;10.27;5.25;;;14.90;99.90;;;;;;5009636;28;20053;-72
2023/01/01 10:30:32;;;;;;;11.10;5.15;;;14.90;99.90;;;;;;5004782;28;20393;-72
2023/01/01 10:33:00;;;;;;;8.10;5.07;;;14.90;99.90;;;;;;5004757;28;20564;-72
2023/01/01 10:35:50;;;;;;;11.05;5.60;;;15.00;99.90;;;;;;5008276;28;20041;-72
2023/01/01 10:38:23;;;;;;;9.00;5.47;;;14.90;99.90;;;;;;5006750;28;20041;-73
2023/01/01 10:40:55;;;;;;;8.65;5.60;;;15.00;99.90;;;;;;5006164;28;20053;-73
2023/01/01 10:43:22;;;;;;;;;;;15.00;99.90;;;;;;4989554;28;20385;-73
2023/01/01 10:45:53;;;;;;;10.77;5.20;;;15.00;99.90;;;;;;5039262;28;20377;-73
2023/01/01 10:48:23;;;;;;;8.75;5.28;;;15.10;99.90;;;;;;5008508;28;20034;-73
2023/01/01 10:51:05;;;;;;;8.80;5.38;;;15.20;99.90;;;;;;5001461;28;20042;-73
2023/01/01 10:53:35;;;;;;;10.20;5.38;;;15.30;99.90;;;;;;5005002;28;20077;-73
2023/01/01 10:56:02;;;;;;;9.88;5.18;;;15.30;99.90;;;;;;5009842;28;20136;-73
2023/01/01 10:58:51;;;;;;;9.55;4.75;;;15.40;99.90;;;;;;5005626;28;20100;-73
2023/01/01 11:01:24;;;;;;;7.43;4.80;;;15.50;99.90;;;;;;5010140;28;20565;-71
2023/01/01 11:04:19;;;;;;;8.77;4.78;;;15.50;99.90;;;;;;5009195;28;20050;-76
2023/01/01 11:06:47;;;;;;;7.10;4.63;;;15.40;99.90;;;;;;5017628;28;20515;-72
2023/01/01 11:09:26;;;;;;;7.88;4.30;;;15.40;99.90;;;;;;5008052;28;20073;-71
2023/01/01 11:12:02;;;;;;;14.40;5.25;;;15.40;99.90;;;;;;5008312;28;20044;-71
2023/01/01 11:14:53;;;;;;;11.45;5.30;;;15.50;99.90;;;;;;5025522;28;20054;-71
2023/01/01 11:17:26;;;;;;;8.57;4.75;;;15.50;99.90;;;;;;5007915;28;20041;-72
2023/01/01 11:19:53;;;;;;;7.97;4.50;;;15.50;99.90;;;;;;5024713;28;20412;-71
2023/01/01 11:22:41;;;;;;;9.73;4.35;;;15.50;99.90;;;;;;5009424;28;20048;-72
2023/01/01 11:25:22;;;;;;;9.38;4.97;;;15.60;99.90;;;;;;5024409;28;20041;-74
2023/01/01 11:27:50;;;;;;;7.05;4.50;;;15.70;99.90;;;;;;5004620;28;20512;-72
2023/01/01 11:30:28;;;;;;;10.05;4.88;;;15.70;99.90;;;;;;4991014;28;20058;-73
2023/01/01 11:33:00;;;;;;;11.23;4.38;;;15.70;99.90;;;;;;5007658;28;20121;-72
2023/01/01 11:35:30;;;;;;;8.80;4.55;;;15.90;99.90;;;;;;5011158;28;20608;-73
2023/01/01 11:37:59;;;;;;;;;;;16.10;99.90;;;;;;5010631;28;20034;-72
2023/01/01 11:40:37;;;;;;;7.63;4.15;;;16.30;99.90;;;;;;5004859;28;19925;-72
2023/01/01 11:43:06;;;;;;;8.88;5.43;;;16.30;99.90;;;;;;4994749;28;20045;-72
2023/01/01 11:45:42;;;;;;;6.85;4.80;;;16.30;99.90;;;;;;5009941;28;20042;-73
2023/01/01 11:48:16;;;;;;;13.55;5.10;;;16.20;99.90;;;;;;4992386;28;20347;-73
2023/01/01 11:50:57;;;;;;;10.35;6.60;;;16.30;99.90;;;;;;5011388;28;20038;-73
2023/01/01 11:53:37;;;;;;;10.85;5.30;;;16.40;99.90;;;;;;5006945;28;20053;-72
2023/01/01 11:56:05;;;;;;;6.97;4.03;;;16.50;99.90;;;;;;5009697;28;20141;-72
2023/01/01 11:58:35;;;;;;;8.75;3.95;;;16.60;99.90;;;;;;5008619;28;20061;-73
2023/01/01 12:01:42;;;;;;;9.73;4.95;;;16.50;99.90;;;;;;5008328;28;20038;-72
2023/01/01 12:04:40;;;;;;;7.70;4.53;;;16.60;99.90;;;;;;5008328;28;20434;-73
2023/01/01 12:07:13;;;;;;;9.77;4.28;;;16.50;99.90;;;;;;5002647;28;20046;-73
2023/01/01 12:09:50;;;;;;;7.63;4.18;;;16.40;99.90;;;;;;5043674;28;20053;-73
2023/01/01 12:12:50;;;;;;;8.23;4.72;;;16.60;99.90;;;;;;5005310;28;20042;-72
2023/01/01 12:15:34;;;;;;;14.25;4.65;;;16.60;99.90;;;;;;5008270;28;20046;-73
2023/01/01 12:18:30;;;;;;;9.25;4.45;;;16.80;99.90;;;;;;5006590;28;20046;-74
2023/01/01 12:21:07;;;;;;;8.85;4.32;;;17.00;99.90;;;;;;5041826;28;20054;-73
2023/01/01 12:23:35;;;;;;;10.82;4.50;;;17.10;99.90;;;;;;5012235;28;20074;-72
2023/01/01 12:26:37;;;;;;;8.85;5.25;;;17.20;99.90;;;;;;5012029;28;20049;-72
2023/01/01 12:29:27;;;;;;;9.07;4.60;;;17.40;99.90;;;;;;5029227;28;20591;-70
2023/01/01 12:32:09;;;;;;;9.50;5.28;;;17.40;99.90;;;;;;5013673;28;20069;-70
2023/01/01 12:34:45;;;;;;;10.35;5.43;;;17.50;99.90;;;;;;4980249;28;20056;-70
2023/01/01 12:37:34;;;;;;;9.18;4.82;;;17.60;99.90;;;;;;5023776;28;20044;-71
2023/01/01 12:40:32;;;;;;;7.82;4.93;;;17.60;99.90;;;;;;4992293;28;20153;-71
2023/01/01 12:43:12;;;;;;;11.85;6.55;;;17.70;99.90;;;;;;5009547;28;20496;-69
2023/01/01 12:46:18;;;;;;;13.32;5.78;;;18.00;99.90;;;;;;5014762;28;20160;-72
2023/01/01 12:49:04;;;;;;;8.93;4.95;;;18.10;99.90;;;;;;4968823;28;20046;-69
2023/01/01 12:52:01;;;;;;;9.88;5.40;;;18.10;99.90;;;;;;4953774;28;20185;-70
2023/01/01 12:54:47;;;;;;;9.88;4.93;;;18.20;99.90;;;;;;4969876;28;20517;-69
2023/01/01 12:57:30;;;;;;;9.57;5.30;;;18.20;99.90;;;;;;4970266;28;20143;-69
2023/01/01 13:00:02;;;;;;;8.95;5.30;;;17.90;99.90;;;;;;4954083;28;20198;-69
2023/01/01 13:02:35;;;;;;;9.90;5.32;;;17.70;99.90;;;;;;4969773;28;20051;-70
2023/01/01 13:05:29;;;;;;;11.95;5.65;;;17.60;99.90;;;;;;4898048;29;20087;-69
2023/01/01 13:08:00;;;;;;;12.00;5.18;;;17.60;99.90;;;;;;4925312;29;20083;-70
2023/01/01 13:10:45;;;;;;;8.75;5.20;;;17.40;99.90;;;;;;4947175;28;20071;-69
2023/01/01 13:13:13;;;;;;;13.85;7.97;;;17.30;99.90;;;;;;4931274;29;20040;-69